Terminal Aerodrome Forecast
Issued by NWS

Home | Current Version | Previous Version | Text Only | Print | Product List | Glossary On
Versions: 1 2 3 4 5 6 7 8 9 10 11 12 13 14
000
FTUS46 KMFR 211904 AAA
TAFOTH
TAF AMD
KOTH 211904Z 2119/2218 29010G16KT 4SM RA BKN025 OVC035
      WS015/22050KT
     FM220400 25012KT P6SM -RA OVC025=

USA.gov is the U.S. government's official web portal to all federal, state and local government web resources and services.